createdAt,value
2022-09-22T00:01:19.563Z,100620.28
2022-09-22T00:03:49.409Z,100620.38
2022-09-22T00:06:18.598Z,100612.81
2022-09-22T00:08:47.095Z,100612.91
2022-09-22T00:11:15.311Z,100611.94
2022-09-22T00:13:43.939Z,100605.19
2022-09-22T00:16:13.212Z,100618.28
2022-09-22T00:18:39.994Z,100619.59
2022-09-22T00:21:07.792Z,100604.56
2022-09-22T00:23:34.347Z,100609.13
2022-09-22T00:26:04.669Z,100625.06
2022-09-22T00:28:33.217Z,100599.47
2022-09-22T00:31:06.780Z,100620.47
2022-09-22T00:33:35.105Z,100610.72
2022-09-22T00:36:03.151Z,100603.06
2022-09-22T00:38:30.075Z,100621.72
2022-09-22T00:40:56.903Z,100613.44
2022-09-22T00:43:25.700Z,100601.53
2022-09-22T00:45:56.483Z,100617.13
2022-09-22T00:48:24.912Z,100619.50
2022-09-22T00:50:54.562Z,100615.66
2022-09-22T00:53:23.150Z,100596.22
2022-09-22T00:55:52.868Z,100605.56
2022-09-22T00:58:25.736Z,100590.84
2022-09-22T01:00:52.613Z,100613.16
2022-09-22T01:03:24.044Z,100600.00
2022-09-22T01:06:00.785Z,100607.81
2022-09-22T01:08:29.150Z,100591.34
2022-09-22T01:10:56.626Z,100600.94
2022-09-22T01:13:29.027Z,100572.97
2022-09-22T01:16:12.002Z,100599.75
2022-09-22T01:18:54.000Z,100595.94
2022-09-22T01:21:33.425Z,100586.06
2022-09-22T01:24:30.795Z,100579.03
2022-09-22T01:27:34.546Z,100582.25
2022-09-22T01:30:23.132Z,100581.19
2022-09-22T01:33:05.327Z,100583.84
2022-09-22T01:35:41.552Z,100559.91
2022-09-22T01:38:12.908Z,100580.16
2022-09-22T01:40:46.947Z,100568.78
2022-09-22T01:43:20.611Z,100564.31
2022-09-22T01:45:50.800Z,100577.38
2022-09-22T01:48:20.022Z,100558.88
2022-09-22T01:50:53.724Z,100566.94
2022-09-22T01:53:24.366Z,100563.19
2022-09-22T01:55:55.261Z,100565.56
2022-09-22T01:58:27.056Z,100568.38
2022-09-22T02:00:59.018Z,100563.97
2022-09-22T02:03:34.855Z,100567.16
2022-09-22T02:06:06.903Z,100566.03
2022-09-22T02:08:37.587Z,100563.19
2022-09-22T02:11:09.167Z,100560.44
2022-09-22T02:13:35.918Z,100555.91
2022-09-22T02:16:04.711Z,100549.19
2022-09-22T02:18:52.310Z,100551.75
2022-09-22T02:21:21.017Z,100531.28
2022-09-22T02:23:49.045Z,100546.47
2022-09-22T02:26:19.180Z,100556.31
2022-09-22T02:28:46.167Z,100557.38
2022-09-22T02:31:21.742Z,100556.22
2022-09-22T02:33:50.092Z,100551.03
2022-09-22T02:36:38.851Z,100551.22
2022-09-22T02:39:09.857Z,100551.75
2022-09-22T02:41:47.590Z,100553.44
2022-09-22T02:44:21.310Z,100534.22
2022-09-22T02:46:55.795Z,100552.63
2022-09-22T02:49:24.770Z,100551.41
2022-09-22T02:51:53.517Z,100543.69
2022-09-22T02:54:20.574Z,100542.78
2022-09-22T02:56:47.143Z,100539.09
2022-09-22T02:59:13.708Z,100536.78
2022-09-22T03:01:40.392Z,100524.91
2022-09-22T03:04:08.663Z,100517.25
2022-09-22T03:07:15.477Z,100531.81
2022-09-22T03:10:13.190Z,100530.94
2022-09-22T03:12:47.937Z,100527.50
2022-09-22T03:15:27.206Z,100530.72
2022-09-22T03:17:53.912Z,100519.09
2022-09-22T03:20:22.994Z,100519.91
2022-09-22T03:22:49.531Z,100516.50
2022-09-22T03:25:16.212Z,100518.41
2022-09-22T03:27:42.771Z,100524.88
2022-09-22T03:30:10.863Z,100515.91
2022-09-22T03:32:37.618Z,100516.97
2022-09-22T03:35:05.133Z,100516.19
2022-09-22T03:37:33.808Z,100504.66
2022-09-22T03:40:00.739Z,100512.16
2022-09-22T03:42:27.423Z,100512.31
2022-09-22T03:44:53.940Z,100500.91
2022-09-22T03:47:20.514Z,100512.25
2022-09-22T03:49:47.026Z,100507.75
2022-09-22T03:52:13.603Z,100514.34
2022-09-22T03:54:41.492Z,100509.69
2022-09-22T03:57:08.315Z,100510.63
2022-09-22T03:59:34.897Z,100507.22
2022-09-22T04:02:45.278Z,100509.13
2022-09-22T04:05:11.849Z,100499.72
2022-09-22T04:07:38.672Z,100489.16
2022-09-22T04:10:07.162Z,100506.03
2022-09-22T04:12:33.733Z,100499.16
2022-09-22T04:15:00.272Z,100500.03
2022-09-22T04:17:28.403Z,100484.69
2022-09-22T04:19:55.100Z,100492.28
2022-09-22T04:22:21.768Z,100489.94
2022-09-22T04:24:48.271Z,100486.47
2022-09-22T04:30:48.210Z,100480.84
2022-09-22T04:33:15.011Z,100484.44
2022-09-22T04:35:41.515Z,100489.72
2022-09-22T04:38:08.035Z,100489.56
2022-09-22T04:40:34.765Z,100488.91
2022-09-22T04:43:01.373Z,100486.28
2022-09-22T04:45:27.982Z,100494.47
2022-09-22T04:47:55.919Z,100477.31
2022-09-22T04:50:23.066Z,100485.66
2022-09-22T04:52:51.357Z,100480.28
2022-09-22T04:55:18.747Z,100493.81
2022-09-22T04:57:47.816Z,100485.88
2022-09-22T05:00:14.737Z,100493.44
2022-09-22T05:02:41.393Z,100495.66
2022-09-22T05:05:10.344Z,100506.53
2022-09-22T05:07:40.391Z,100497.56
2022-09-22T05:10:10.285Z,100494.47
2022-09-22T05:12:39.217Z,100487.41
2022-09-22T05:15:06.809Z,100492.38
2022-09-22T05:17:33.278Z,100501.59
2022-09-22T05:23:36.506Z,100499.03
2022-09-22T05:26:03.109Z,100506.69
2022-09-22T05:28:29.627Z,100509.25
2022-09-22T05:30:56.349Z,100501.16
2022-09-22T05:33:22.938Z,100509.41
2022-09-22T05:35:49.417Z,100507.91
2022-09-22T05:38:15.993Z,100501.91
2022-09-22T05:40:45.069Z,100494.31
2022-09-22T05:43:12.137Z,100507.78
2022-09-22T05:45:39.098Z,100500.28
2022-09-22T05:48:05.842Z,100502.13
2022-09-22T05:50:32.332Z,100508.66
2022-09-22T05:53:03.332Z,100510.09
2022-09-22T05:55:29.934Z,100507.50
2022-09-22T05:57:58.969Z,100502.84
2022-09-22T06:00:27.115Z,100498.63
2022-09-22T06:02:54.851Z,100495.50
2022-09-22T06:05:21.643Z,100501.47
2022-09-22T06:07:55.161Z,100504.41
2022-09-22T06:10:21.634Z,100500.06
2022-09-22T06:12:48.078Z,100507.13
2022-09-22T06:15:16.245Z,100503.34
2022-09-22T06:17:42.718Z,100495.81
2022-09-22T06:20:09.389Z,100499.78
2022-09-22T06:22:35.851Z,100491.25
2022-09-22T06:25:32.471Z,100484.66
2022-09-22T06:27:59.855Z,100493.00
2022-09-22T06:30:27.903Z,100490.69
2022-09-22T06:32:55.243Z,100492.41
2022-09-22T06:35:22.229Z,100493.94
2022-09-22T06:37:55.898Z,100490.78
2022-09-22T06:40:22.532Z,100500.38
2022-09-22T06:42:49.214Z,100490.91
2022-09-22T06:45:16.090Z,100495.94
2022-09-22T06:47:45.097Z,100493.56
2022-09-22T06:50:11.573Z,100485.19
2022-09-22T06:52:41.137Z,100495.81
2022-09-22T06:55:17.880Z,100488.59
2022-09-22T06:57:47.048Z,100473.91
2022-09-22T07:00:20.408Z,100486.03
2022-09-22T07:02:48.210Z,100493.44
2022-09-22T07:05:15.098Z,100484.47
2022-09-22T07:07:41.824Z,100484.47
2022-09-22T07:10:09.334Z,100485.47
2022-09-22T07:12:35.838Z,100487.41
2022-09-22T07:15:02.323Z,100491.19
2022-09-22T07:17:28.818Z,100483.81
2022-09-22T07:20:20.184Z,100467.53
2022-09-22T07:22:47.536Z,100470.97
2022-09-22T07:25:14.975Z,100467.06
2022-09-22T07:27:41.670Z,100489.50
2022-09-22T07:30:09.198Z,100485.19
2022-09-22T07:33:02.158Z,100485.50
2022-09-22T07:35:37.436Z,100486.88
2022-09-22T07:38:04.026Z,100484.22
2022-09-22T07:40:31.334Z,100478.91
2022-09-22T07:42:58.005Z,100475.84
2022-09-22T07:45:32.015Z,100484.44
2022-09-22T07:47:58.641Z,100485.59
2022-09-22T07:50:25.315Z,100475.22
2022-09-22T07:52:53.752Z,100494.16
2022-09-22T07:55:21.529Z,100488.81
2022-09-22T07:57:53.146Z,100477.47
2022-09-22T08:00:19.720Z,100492.06
2022-09-22T08:02:50.991Z,100486.59
2022-09-22T08:05:17.468Z,100483.56
2022-09-22T08:07:44.046Z,100479.91
2022-09-22T08:10:11.881Z,100489.78
2022-09-22T08:12:38.406Z,100480.59
2022-09-22T08:15:06.022Z,100483.03
2022-09-22T08:18:16.237Z,100488.03
2022-09-22T08:20:44.929Z,100483.22
2022-09-22T08:23:11.841Z,100488.41
2022-09-22T08:25:39.821Z,100487.44
2022-09-22T08:35:01.209Z,100482.91
2022-09-22T08:37:27.710Z,100461.47
2022-09-22T08:39:54.203Z,100479.78
2022-09-22T08:42:22.946Z,100482.25
2022-09-22T08:44:59.112Z,100478.66
2022-09-22T08:47:30.655Z,100476.16
2022-09-22T08:49:57.218Z,100484.88
2022-09-22T08:52:31.537Z,100490.56
2022-09-22T08:54:58.700Z,100479.78
2022-09-22T08:57:43.122Z,100484.72
2022-09-22T09:03:25.835Z,100476.97
2022-09-22T09:06:00.463Z,100486.47
2022-09-22T09:08:59.149Z,100490.72
2022-09-22T09:11:47.272Z,100493.19
2022-09-22T09:17:40.153Z,100481.94
2022-09-22T09:20:16.024Z,100484.84
2022-09-22T09:25:24.982Z,100494.09
2022-09-22T09:32:25.112Z,100487.41
2022-09-22T09:34:55.828Z,100481.50
2022-09-22T09:41:24.342Z,100491.97
2022-09-22T09:47:21.791Z,100472.75
2022-09-22T09:50:16.632Z,100461.13
2022-09-22T09:52:43.180Z,100476.50
2022-09-22T09:55:19.985Z,100466.78
2022-09-22T09:58:04.130Z,100477.44
2022-09-22T10:07:48.647Z,100459.25
2022-09-22T10:10:33.046Z,100458.63
2022-09-22T10:13:23.118Z,100446.88
2022-09-22T10:16:20.715Z,100450.66
2022-09-22T10:18:51.238Z,100452.94
2022-09-22T10:21:19.395Z,100439.00
2022-09-22T10:23:48.230Z,100425.94
2022-09-22T10:26:21.163Z,100437.81
2022-09-22T10:29:16.579Z,100421.44
2022-09-22T10:32:00.384Z,100442.38
2022-09-22T10:34:30.146Z,100438.00
2022-09-22T10:36:58.357Z,100442.06
2022-09-22T10:39:35.423Z,100439.47
2022-09-22T10:42:06.540Z,100436.34
2022-09-22T10:44:39.452Z,100430.28
2022-09-22T10:47:27.290Z,100428.53
2022-09-22T10:50:27.124Z,100431.28
2022-09-22T10:52:58.516Z,100441.63
2022-09-22T10:55:30.232Z,100434.78
2022-09-22T10:58:23.865Z,100435.66
2022-09-22T11:01:00.335Z,100435.63
2022-09-22T11:03:47.976Z,100429.69
2022-09-22T11:06:27.731Z,100424.03
2022-09-22T11:09:02.011Z,100419.91
2022-09-22T11:11:39.539Z,100414.06
2022-09-22T11:14:16.395Z,100421.41
2022-09-22T11:17:02.229Z,100417.91
2022-09-22T11:20:02.729Z,100416.63
2022-09-22T11:22:59.923Z,100413.66
2022-09-22T11:25:42.309Z,100417.19
2022-09-22T11:28:27.227Z,100401.59
2022-09-22T11:30:54.907Z,100400.03
2022-09-22T11:33:54.113Z,100401.47
2022-09-22T11:36:31.232Z,100406.97
2022-09-22T11:39:47.314Z,100397.50
2022-09-22T11:42:21.213Z,100364.66
2022-09-22T11:45:07.663Z,100381.72
2022-09-22T11:47:47.664Z,100360.50
2022-09-22T11:50:40.032Z,100374.84
2022-09-22T11:53:24.086Z,100367.53
2022-09-22T11:59:30.383Z,100350.53
2022-09-22T12:02:01.618Z,100364.56
2022-09-22T12:05:15.660Z,100335.63
2022-09-22T12:07:46.617Z,100351.09
2022-09-22T12:10:16.852Z,100344.97
2022-09-22T12:16:19.316Z,100331.75
2022-09-22T12:19:02.422Z,100339.84
2022-09-22T12:21:48.786Z,100302.81
2022-09-22T12:24:15.634Z,100332.25
2022-09-22T12:26:47.171Z,100319.59
2022-09-22T12:29:27.561Z,100332.50
2022-09-22T12:31:56.473Z,100332.69
2022-09-22T12:34:27.194Z,100321.97
2022-09-22T12:43:05.592Z,100296.94
2022-09-22T12:45:37.945Z,100304.75
2022-09-22T12:52:41.865Z,100308.31
2022-09-22T12:55:33.370Z,100297.81
2022-09-22T12:58:02.911Z,100292.09
2022-09-22T13:00:40.765Z,100297.94
2022-09-22T13:03:41.105Z,100302.97
2022-09-22T13:10:02.447Z,100283.72
2022-09-22T13:12:30.460Z,100300.41
2022-09-22T13:15:00.034Z,100288.53
2022-09-22T13:17:33.581Z,100279.28
2022-09-22T13:20:00.253Z,100282.50
2022-09-22T13:22:26.877Z,100270.75
2022-09-22T13:24:53.441Z,100288.72
2022-09-22T13:30:41.968Z,100265.03
2022-09-22T13:33:55.672Z,100266.19
2022-09-22T13:36:22.439Z,100253.59
2022-09-22T13:42:42.731Z,100265.28
2022-09-22T13:45:17.377Z,100250.38
2022-09-22T13:47:46.391Z,100270.63
2022-09-22T13:50:17.908Z,100261.75
2022-09-22T13:52:46.870Z,100249.97
2022-09-22T13:55:19.011Z,100256.22
2022-09-22T13:57:46.558Z,100251.16
2022-09-22T14:00:21.799Z,100251.06
2022-09-22T14:02:50.362Z,100233.72
2022-09-22T14:05:18.896Z,100238.41
2022-09-22T14:14:27.879Z,100243.66
2022-09-22T14:20:53.184Z,100222.41
2022-09-22T14:23:27.036Z,100233.56
2022-09-22T14:25:54.482Z,100233.06
2022-09-22T14:28:23.996Z,100216.16
2022-09-22T14:34:25.241Z,100220.47
2022-09-22T14:36:59.134Z,100212.75
2022-09-22T14:39:31.695Z,100209.16
2022-09-22T14:45:22.153Z,100194.34
2022-09-22T14:48:10.094Z,100209.78
2022-09-22T14:50:39.971Z,100209.03
2022-09-22T14:53:13.504Z,100203.31
2022-09-22T14:59:08.481Z,100187.59
2022-09-22T15:01:49.091Z,100188.63
2022-09-22T15:07:47.063Z,100200.00
2022-09-22T15:10:22.234Z,100202.38
2022-09-22T15:13:18.199Z,100193.94
2022-09-22T15:15:50.608Z,100185.25
2022-09-22T15:22:10.494Z,100168.41
2022-09-22T15:24:47.232Z,100180.25
2022-09-22T15:27:20.536Z,100173.63
2022-09-22T15:33:26.805Z,100176.72
2022-09-22T15:35:55.080Z,100156.53
2022-09-22T15:45:16.741Z,100162.16
2022-09-22T15:54:28.436Z,100154.69
2022-09-22T15:57:07.461Z,100152.78
2022-09-22T15:59:39.765Z,100148.75
2022-09-22T16:02:10.449Z,100149.53
2022-09-22T16:04:45.648Z,100142.53
2022-09-22T16:07:21.664Z,100138.59
2022-09-22T16:09:58.668Z,100138.59
2022-09-22T16:12:28.613Z,100132.41
2022-09-22T16:14:55.269Z,100129.47
2022-09-22T16:21:02.996Z,100138.78
2022-09-22T16:23:35.438Z,100141.31
2022-09-22T16:33:12.959Z,100132.38
2022-09-22T16:35:42.562Z,100142.25
2022-09-22T16:42:43.302Z,100148.09
2022-09-22T16:45:10.383Z,100115.53
2022-09-22T16:47:58.019Z,100133.56
2022-09-22T16:50:29.009Z,100144.88
2022-09-22T16:52:55.598Z,100142.72
2022-09-22T16:55:22.115Z,100157.09
2022-09-22T16:57:51.533Z,100136.19
2022-09-22T17:00:21.495Z,100147.94
2022-09-22T17:02:48.077Z,100154.59
2022-09-22T17:05:14.796Z,100137.94
2022-09-22T17:07:42.674Z,100154.88
2022-09-22T17:10:10.028Z,100145.13
2022-09-22T17:12:36.555Z,100150.22
2022-09-22T17:15:03.307Z,100134.38
2022-09-22T17:17:32.351Z,100150.31
2022-09-22T17:20:01.959Z,100150.25
2022-09-22T17:22:36.079Z,100142.94
2022-09-22T17:25:47.194Z,100135.22
2022-09-22T17:28:13.806Z,100133.00
2022-09-22T17:30:54.740Z,100129.31
2022-09-22T17:33:21.234Z,100143.50
2022-09-22T17:36:09.517Z,100126.06
2022-09-22T17:38:36.629Z,100137.50
2022-09-22T17:41:07.440Z,100134.16
2022-09-22T17:43:34.497Z,100134.59
2022-09-22T17:52:28.611Z,100130.50
2022-09-22T17:54:55.674Z,100143.00
2022-09-22T17:57:25.649Z,100153.28
2022-09-22T17:59:52.813Z,100146.88
2022-09-22T18:02:20.623Z,100141.19
2022-09-22T18:04:47.838Z,100142.19
2022-09-22T18:07:19.174Z,100134.22
2022-09-22T18:09:46.928Z,100146.59
2022-09-22T18:12:15.115Z,100146.59
2022-09-22T18:14:43.153Z,100148.41
2022-09-22T18:17:10.339Z,100148.03
2022-09-22T18:19:38.050Z,100146.19
2022-09-22T18:22:05.648Z,100122.88
2022-09-22T18:24:32.173Z,100151.28
2022-09-22T18:26:58.786Z,100135.31
2022-09-22T18:29:25.346Z,100142.22
2022-09-22T18:31:53.152Z,100151.06
2022-09-22T18:34:19.681Z,100151.59
2022-09-22T18:36:46.360Z,100136.25
2022-09-22T18:39:16.086Z,100129.50
2022-09-22T18:41:42.628Z,100148.47
2022-09-22T18:44:09.144Z,100155.47
2022-09-22T18:46:36.382Z,100141.16
2022-09-22T18:49:06.726Z,100146.13
2022-09-22T18:51:33.916Z,100147.41
2022-09-22T18:54:01.047Z,100126.91
2022-09-22T18:56:27.541Z,100127.16
2022-09-22T18:58:55.345Z,100133.16
2022-09-22T19:01:24.765Z,100135.28
2022-09-22T19:03:51.829Z,100132.75
2022-09-22T19:06:19.776Z,100136.66
2022-09-22T19:08:46.296Z,100146.75
2022-09-22T19:11:14.367Z,100127.78
2022-09-22T19:13:40.838Z,100134.53
2022-09-22T19:16:07.414Z,100138.13
2022-09-22T19:18:41.516Z,100133.75
2022-09-22T19:21:12.459Z,100131.16
2022-09-22T19:23:42.126Z,100140.75
2022-09-22T19:26:32.284Z,100136.28
2022-09-22T19:32:06.418Z,100131.25
2022-09-22T19:34:33.946Z,100124.28
2022-09-22T19:37:00.778Z,100116.66
2022-09-22T19:39:28.670Z,100132.88
2022-09-22T19:41:55.379Z,100127.63
2022-09-22T19:44:22.745Z,100112.53
2022-09-22T19:47:03.074Z,100131.25
2022-09-22T19:49:30.607Z,100125.22
2022-09-22T19:52:08.944Z,100114.34
2022-09-22T19:54:37.229Z,100122.72
2022-09-22T19:57:04.256Z,100100.50
2022-09-22T19:59:30.871Z,100109.19
2022-09-22T20:01:57.460Z,100115.53
2022-09-22T20:04:24.013Z,100123.28
2022-09-22T20:06:50.618Z,100123.66
2022-09-22T20:09:17.724Z,100106.94
2022-09-22T20:11:47.812Z,100115.16
2022-09-22T20:14:15.680Z,100100.84
2022-09-22T20:16:45.913Z,100111.91
2022-09-22T20:19:18.885Z,100104.94
2022-09-22T20:21:46.782Z,100104.44
2022-09-22T20:24:15.553Z,100107.78
2022-09-22T20:26:43.164Z,100117.09
2022-09-22T20:29:12.128Z,100112.78
2022-09-22T20:31:39.330Z,100117.09
2022-09-22T20:34:07.176Z,100103.16
2022-09-22T20:36:36.906Z,100116.84
2022-09-22T20:39:04.062Z,100103.16
2022-09-22T20:41:30.604Z,100097.53
2022-09-22T20:43:57.174Z,100103.00
2022-09-22T20:46:25.438Z,100094.69
2022-09-22T20:48:51.982Z,100094.31
2022-09-22T20:51:18.655Z,100082.72
2022-09-22T20:53:45.162Z,100100.91
2022-09-22T20:56:12.253Z,100085.72
2022-09-22T20:58:41.207Z,100095.91
2022-09-22T21:01:09.398Z,100099.25
2022-09-22T21:03:37.594Z,100100.16
2022-09-22T21:06:07.331Z,100097.13
2022-09-22T21:08:37.191Z,100097.78
2022-09-22T21:11:03.804Z,100086.66
2022-09-22T21:13:30.358Z,100092.88
2022-09-22T21:16:00.865Z,100103.19
2022-09-22T21:18:27.934Z,100098.72
2022-09-22T21:20:55.749Z,100098.44
2022-09-22T21:23:22.271Z,100097.84
2022-09-22T21:25:57.815Z,100104.53
2022-09-22T21:28:24.748Z,100091.56
2022-09-22T21:30:55.233Z,100088.28
2022-09-22T21:33:21.899Z,100095.06
2022-09-22T21:35:48.483Z,100085.25
2022-09-22T21:38:16.859Z,100089.28
2022-09-22T21:40:43.347Z,100094.00
2022-09-22T21:43:09.830Z,100104.06
2022-09-22T21:45:36.333Z,100090.91
2022-09-22T21:48:03.268Z,100089.00
2022-09-22T21:50:29.783Z,100092.50
2022-09-22T21:52:56.281Z,100082.13
2022-09-22T21:55:24.311Z,100072.69
2022-09-22T21:57:52.458Z,100077.97
2022-09-22T22:00:32.017Z,100059.47
2022-09-22T22:03:05.958Z,100079.97
2022-09-22T22:05:32.493Z,100081.47
2022-09-22T22:07:59.122Z,100066.34
2022-09-22T22:10:27.015Z,100073.56
2022-09-22T22:12:53.479Z,100069.97
2022-09-22T22:15:19.953Z,100070.09
2022-09-22T22:17:46.679Z,100062.16
2022-09-22T22:20:13.287Z,100069.44
2022-09-22T22:22:39.777Z,100068.56
2022-09-22T22:25:06.798Z,100062.59
2022-09-22T22:27:34.765Z,100063.56
2022-09-22T22:30:01.799Z,100060.28
2022-09-22T22:32:28.485Z,100047.72
2022-09-22T22:34:54.947Z,100043.13
2022-09-22T22:37:21.463Z,100045.09
2022-09-22T22:39:48.031Z,100045.88
2022-09-22T22:42:14.467Z,100058.69
2022-09-22T22:44:42.288Z,100051.56
2022-09-22T22:47:09.189Z,100050.66
2022-09-22T22:49:35.732Z,100043.59
2022-09-22T22:52:02.613Z,100042.59
2022-09-22T22:54:29.124Z,100042.75
2022-09-22T22:56:55.945Z,100037.81
2022-09-22T22:59:22.440Z,100045.19
2022-09-22T23:01:50.379Z,100031.47
2022-09-22T23:04:17.006Z,100034.47
2022-09-22T23:06:43.502Z,100044.47
2022-09-22T23:09:12.140Z,100045.66
2022-09-22T23:11:39.531Z,100047.28
2022-09-22T23:14:07.754Z,100045.00
2022-09-22T23:16:37.907Z,100042.59
2022-09-22T23:19:08.767Z,100055.28
2022-09-22T23:21:36.521Z,100042.34
2022-09-22T23:24:04.111Z,100031.66
2022-09-22T23:26:31.544Z,100046.09
2022-09-22T23:28:58.726Z,100030.25
2022-09-22T23:31:25.903Z,100040.63
2022-09-22T23:33:52.742Z,100020.28
2022-09-22T23:36:22.695Z,100023.84
2022-09-22T23:38:53.261Z,100025.34
2022-09-22T23:41:19.757Z,100027.28
2022-09-22T23:43:46.210Z,100020.16
2022-09-22T23:46:12.743Z,100014.47
2022-09-22T23:48:39.266Z,100016.09
2022-09-22T23:51:06.087Z,100010.84
2022-09-22T23:53:36.082Z,100009.75
2022-09-22T23:56:03.961Z,100011.50
2022-09-22T23:58:30.628Z,100000.84
